createdAt,value
2022-10-01T00:00:03.252Z,22.1
2022-10-01T00:15:03.229Z,22
2022-10-01T00:30:04.096Z,22
2022-10-01T00:45:03.105Z,21.9
2022-10-01T01:00:04.279Z,21.8
2022-10-01T01:15:05.421Z,21.7
2022-10-01T01:45:02.617Z,21.7
2022-10-01T02:00:06.448Z,21.6
2022-10-01T02:15:05.454Z,21.7
2022-10-01T02:30:05.550Z,21.6
2022-10-01T02:45:02.279Z,21.6
2022-10-01T03:00:02.479Z,21.6
2022-10-01T03:15:05.195Z,21.6
2022-10-01T03:30:05.387Z,21.5
2022-10-01T03:45:04.220Z,21.5
2022-10-01T04:00:04.438Z,21.5
2022-10-01T04:15:03.235Z,21.5
2022-10-01T04:30:04.219Z,21.4
2022-10-01T04:45:05.461Z,21.3
2022-10-01T05:00:03.514Z,21.2
2022-10-01T05:15:03.151Z,21.1
2022-10-01T05:30:02.209Z,21
2022-10-01T05:45:02.533Z,21
2022-10-01T06:00:02.422Z,21.1
2022-10-01T06:15:05.381Z,21.2
2022-10-01T06:30:05.339Z,21.4
2022-10-01T06:45:03.387Z,21.5
2022-10-01T07:00:02.080Z,21.6
2022-10-01T07:15:03.204Z,21.7
2022-10-01T07:30:03.537Z,21.7
2022-10-01T07:45:06.051Z,21.8
2022-10-01T08:00:04.365Z,21.8
2022-10-01T08:15:02.074Z,21.9
2022-10-01T08:30:04.234Z,22
2022-10-01T08:45:03.179Z,22.1
2022-10-01T09:00:05.109Z,22.1
2022-10-01T09:15:03.511Z,22.2
2022-10-01T09:30:02.227Z,22.2
2022-10-01T09:45:05.413Z,22.2
2022-10-01T10:15:03.656Z,22.3
2022-10-01T10:30:05.174Z,22.3
2022-10-01T10:45:06.269Z,22.3
2022-10-01T11:00:05.209Z,22.3
2022-10-01T11:15:03.169Z,22.3
2022-10-01T11:30:02.398Z,22.3
2022-10-01T11:45:05.269Z,22.2
2022-10-01T12:00:03.063Z,22.2
2022-10-01T12:30:06.170Z,22.2
2022-10-01T12:45:03.629Z,22.2
2022-10-01T13:00:02.494Z,22.2
2022-10-01T13:15:04.336Z,22.3
2022-10-01T13:30:04.139Z,22.4
2022-10-01T13:50:05.354Z,22.3
2022-10-01T14:05:04.296Z,22.3
2022-10-01T14:20:03.647Z,22.3
2022-10-01T14:35:03.556Z,22.3
2022-10-01T14:50:04.418Z,22.4
2022-10-01T15:05:05.419Z,22.5
2022-10-01T15:20:06.244Z,22.5
2022-10-01T15:35:03.507Z,22.5
2022-10-01T15:50:04.149Z,22.5
2022-10-01T16:05:03.169Z,22.5
2022-10-01T16:20:03.308Z,22.5
2022-10-01T16:35:02.531Z,22.6
2022-10-01T16:50:05.287Z,22.6
2022-10-01T17:05:04.145Z,22.7
2022-10-01T17:20:03.091Z,22.7
2022-10-01T17:35:04.266Z,22.8
2022-10-01T17:50:03.290Z,22.9
2022-10-01T18:05:03.448Z,23
2022-10-01T18:20:05.229Z,23
2022-10-01T18:40:04.601Z,23.1
2022-10-01T18:55:02.533Z,23.1
2022-10-01T19:10:06.263Z,23.1
2022-10-01T19:25:06.293Z,23.1
2022-10-01T19:40:06.452Z,23.1
2022-10-01T19:55:09.424Z,23
2022-10-01T20:10:03.391Z,23
2022-10-01T20:25:06.045Z,23
2022-10-01T20:40:02.421Z,23
2022-10-01T20:55:02.096Z,22.9
2022-10-01T21:10:02.561Z,22.8
2022-10-01T21:25:06.535Z,22.8
2022-10-01T21:40:03.594Z,22.7
2022-10-01T21:55:05.297Z,22.6
2022-10-01T22:10:06.617Z,22.5
2022-10-01T22:25:03.283Z,22.5
2022-10-01T22:40:03.420Z,22.5
2022-10-01T22:55:04.589Z,22.5
2022-10-01T23:10:03.102Z,22.5
2022-10-01T23:25:05.231Z,22.4
2022-10-01T23:40:03.194Z,22.4
2022-10-01T23:55:03.394Z,22.3
